Time;durP1;ratioP1;P1;durP2;ratioP2;P2;SDS_P1;SDS_P2;PMS_P1;PMS_P2;Temp;Humidity;BMP_temperature;BMP_pressure;BME280_temperature;BME280_humidity;BME280_pressure;Samples;Min_cycle;Max_cycle;Signal;HPM_P1;HPM_P2
2022/07/09 00:02:07;;;;;;;8.95;8.32;;;;;;;-141.48;100.00;69781.59;4971949;29;20105;-64
2022/07/09 00:04:37;;;;;;;9.73;8.80;;;;;;;-141.48;100.00;69781.59;4971540;29;20110;-64
2022/07/09 00:07:08;;;;;;;10.18;9.38;;;;;;;-141.48;100.00;69781.59;4971660;29;20034;-65
2022/07/09 00:09:38;;;;;;;8.60;7.85;;;;;;;-141.48;100.00;69781.59;4955410;29;20039;-66
2022/07/09 00:12:09;;;;;;;9.57;8.88;;;;;;;-141.48;100.00;69781.59;4971779;29;20523;-64
2022/07/09 00:14:39;;;;;;;10.98;8.30;;;;;;;-141.48;100.00;69781.59;4971243;29;20488;-65
2022/07/09 00:17:10;;;;;;;10.52;9.20;;;;;;;-141.48;100.00;69781.59;4971428;29;20109;-65
2022/07/09 00:19:40;;;;;;;8.25;7.85;;;;;;;-141.48;100.00;69781.59;4971332;29;20067;-66
2022/07/09 00:22:11;;;;;;;8.75;8.15;;;;;;;-141.48;100.00;69781.59;4971671;29;20074;-65
2022/07/09 00:24:41;;;;;;;12.05;9.25;;;;;;;-141.48;100.00;69781.59;4971167;29;20037;-65
2022/07/09 00:27:11;;;;;;;10.02;9.30;;;;;;;-141.48;100.00;69781.59;4954996;29;20031;-65
2022/07/09 00:29:42;;;;;;;10.10;9.02;;;;;;;-141.48;100.00;69781.59;4971248;29;20058;-64
2022/07/09 00:32:12;;;;;;;9.85;9.00;;;;;;;-141.48;100.00;69781.59;4970801;29;20038;-65
2022/07/09 00:34:43;;;;;;;9.13;8.48;;;;;;;-141.48;100.00;69781.59;4970866;29;20080;-66
2022/07/09 00:37:13;;;;;;;11.63;10.35;;;;;;;-141.48;100.00;69781.59;4971152;29;20099;-66
2022/07/09 00:39:43;;;;;;;10.85;9.73;;;;;;;-141.48;100.00;69781.59;4970966;29;20026;-67
2022/07/09 00:42:14;;;;;;;9.32;8.73;;;;;;;-141.48;100.00;69781.59;4954882;29;20027;-68
2022/07/09 00:44:44;;;;;;;12.73;10.73;;;;;;;-141.48;100.00;69781.59;4954129;29;20035;-65
2022/07/09 00:47:15;;;;;;;15.73;11.05;;;;;;;-141.48;100.00;69781.59;4970885;29;20049;-66
2022/07/09 00:49:45;;;;;;;12.13;11.20;;;;;;;-141.48;100.00;69781.59;4970987;29;20029;-65
2022/07/09 00:52:17;;;;;;;11.45;10.23;;;;;;;-141.48;100.00;69781.59;4970744;29;20053;-66
2022/07/09 00:54:48;;;;;;;10.48;9.68;;;;;;;-141.48;100.00;69781.59;4970444;29;20049;-65
2022/07/09 00:57:19;;;;;;;11.80;11.00;;;;;;;-141.48;100.00;69781.59;4970042;29;20480;-66
2022/07/09 00:59:51;;;;;;;10.77;9.63;;;;;;;-141.48;100.00;69781.59;4970529;29;20516;-66
2022/07/09 01:02:22;;;;;;;11.27;10.32;;;;;;;-141.48;100.00;69781.59;4970660;29;20027;-65
2022/07/09 01:04:53;;;;;;;10.48;9.80;;;;;;;-141.48;100.00;69781.59;4954163;29;20095;-66
2022/07/09 01:07:23;;;;;;;10.52;9.75;;;;;;;-141.48;100.00;69781.59;4970347;29;20488;-66
2022/07/09 01:09:54;;;;;;;10.68;9.73;;;;;;;-141.48;100.00;69781.59;4970316;29;20035;-66
2022/07/09 01:12:24;;;;;;;12.52;11.57;;;;;;;-141.48;100.00;69781.59;4970615;29;20027;-66
2022/07/09 01:14:55;;;;;;;10.80;9.20;;;;;;;-141.48;100.00;69781.59;4970423;29;20027;-66
2022/07/09 01:17:25;;;;;;;11.57;10.88;;;;;;;-141.48;100.00;69781.59;4953975;29;20030;-67
2022/07/09 01:19:56;;;;;;;9.80;9.13;;;;;;;-141.48;100.00;69781.59;4970044;29;20101;-66
2022/07/09 01:22:26;;;;;;;10.90;10.25;;;;;;;-141.48;100.00;69781.59;4970250;29;20361;-66
2022/07/09 01:25:00;;;;;;;12.50;11.43;;;;;;;-141.48;100.00;69781.59;4970016;29;20122;-66
2022/07/09 01:27:30;;;;;;;13.13;12.00;;;;;;;-141.48;100.00;69781.59;4970333;29;20392;-67
2022/07/09 01:30:01;;;;;;;12.27;11.27;;;;;;;-141.48;100.00;69781.59;4970105;29;20034;-66
2022/07/09 01:32:32;;;;;;;14.18;12.85;;;;;;;-141.48;100.00;69781.59;4969904;29;20082;-66
2022/07/09 01:35:03;;;;;;;11.15;10.30;;;;;;;-141.48;100.00;69781.59;4970073;29;20042;-67
2022/07/09 01:37:34;;;;;;;13.60;12.43;;;;;;;-141.48;100.00;69781.59;4970301;29;20039;-65
2022/07/09 01:40:04;;;;;;;13.40;12.32;;;;;;;-141.48;100.00;69781.59;4953938;29;20056;-66
2022/07/09 01:42:35;;;;;;;13.88;12.70;;;;;;;-141.48;100.00;69781.59;4970143;29;20035;-65
2022/07/09 01:45:06;;;;;;;10.85;10.10;;;;;;;-141.48;100.00;69781.59;4969488;29;20117;-66
2022/07/09 01:47:37;;;;;;;14.60;13.15;;;;;;;-141.48;100.00;69781.59;4953777;29;20058;-65
2022/07/09 01:50:08;;;;;;;12.60;11.57;;;;;;;-141.48;100.00;69781.59;4969901;29;20092;-67
2022/07/09 01:52:39;;;;;;;12.90;11.82;;;;;;;-141.48;100.00;69781.59;4970026;29;20031;-66
2022/07/09 01:55:09;;;;;;;13.82;12.50;;;;;;;-141.48;100.00;69781.59;4954653;29;20031;-66
2022/07/09 01:57:40;;;;;;;17.08;15.48;;;;;;;-141.48;100.00;69781.59;4954992;29;20035;-65
2022/07/09 02:00:11;;;;;;;16.83;15.35;;;;;;;-141.48;100.00;69781.59;4954517;29;20465;-66
2022/07/09 02:02:41;;;;;;;12.70;11.52;;;;;;;-141.48;100.00;69781.59;4954830;29;20091;-66
2022/07/09 02:05:12;;;;;;;14.38;12.70;;;;;;;-141.48;100.00;69781.59;4953886;29;20030;-66
2022/07/09 02:07:42;;;;;;;13.70;12.75;;;;;;;-141.48;100.00;69781.59;4954655;29;20050;-66
2022/07/09 02:10:13;;;;;;;14.38;13.07;;;;;;;-141.48;100.00;69781.59;4973769;29;20529;-66
2022/07/09 02:12:43;;;;;;;17.25;15.48;;;;;;;-141.48;100.00;69781.59;4973989;29;20029;-65
2022/07/09 02:15:13;;;;;;;14.90;13.50;;;;;;;-141.48;100.00;69781.59;4973450;29;20528;-66
2022/07/09 02:17:44;;;;;;;16.63;15.02;;;;;;;-141.48;100.00;69781.59;4973665;29;20026;-66
2022/07/09 02:20:14;;;;;;;14.75;13.65;;;;;;;-141.48;100.00;69781.59;4957622;29;20038;-66
2022/07/09 02:22:45;;;;;;;14.20;12.73;;;;;;;-141.48;100.00;69781.59;4973667;29;20027;-67
2022/07/09 02:25:15;;;;;;;14.55;13.20;;;;;;;-141.48;100.00;69781.59;4973339;29;20031;-68
2022/07/09 02:27:46;;;;;;;12.35;11.63;;;;;;;-141.48;100.00;69781.59;4973387;29;20027;-66
2022/07/09 02:30:16;;;;;;;12.52;11.43;;;;;;;-141.48;100.00;69781.59;4973529;29;20043;-66
2022/07/09 02:32:47;;;;;;;12.50;11.50;;;;;;;-141.48;100.00;69781.59;4973477;29;20042;-66
2022/07/09 02:35:17;;;;;;;14.25;13.02;;;;;;;-141.48;100.00;69781.59;4973164;29;20037;-66
2022/07/09 02:37:47;;;;;;;11.32;10.43;;;;;;;-141.48;100.00;69781.59;4973176;29;20069;-66
2022/07/09 02:40:18;;;;;;;15.85;10.88;;;;;;;-141.48;100.00;69781.59;4972800;29;20034;-65
2022/07/09 02:42:48;;;;;;;11.23;10.15;;;;;;;-141.48;100.00;69781.59;4956676;29;20066;-66
2022/07/09 02:45:19;;;;;;;11.02;10.40;;;;;;;-141.48;100.00;69781.59;4972924;29;20117;-66
2022/07/09 02:47:49;;;;;;;10.82;9.40;;;;;;;-141.48;100.00;69781.59;4956665;29;20061;-65
2022/07/09 02:50:20;;;;;;;13.35;10.32;;;;;;;-141.48;100.00;69781.59;4973371;29;20027;-66
2022/07/09 02:52:50;;;;;;;11.00;10.10;;;;;;;-141.48;100.00;69781.59;4972630;29;20373;-66
2022/07/09 02:55:20;;;;;;;9.65;8.95;;;;;;;-141.48;100.00;69781.59;4972538;29;20055;-66
2022/07/09 02:57:51;;;;;;;12.07;11.35;;;;;;;-141.48;100.00;69781.59;4972360;29;20087;-66
2022/07/09 03:00:21;;;;;;;22.48;9.98;;;;;;;-141.48;100.00;69781.59;4972405;29;20034;-66
2022/07/09 03:02:52;;;;;;;10.27;9.68;;;;;;;-141.48;100.00;69781.59;4972605;29;20031;-66
2022/07/09 03:05:22;;;;;;;10.35;9.65;;;;;;;-141.48;100.00;69781.59;4972383;29;20381;-65
2022/07/09 03:07:52;;;;;;;11.70;10.63;;;;;;;-141.48;100.00;69781.59;4972634;29;20030;-67
2022/07/09 03:10:23;;;;;;;12.13;11.23;;;;;;;-141.48;100.00;69781.59;4972803;29;20472;-67
2022/07/09 03:12:53;;;;;;;12.93;11.45;;;;;;;-141.48;100.00;69781.59;4972442;29;20061;-66
2022/07/09 03:15:24;;;;;;;13.07;11.57;;;;;;;-141.48;100.00;69781.59;4972348;29;20038;-67
2022/07/09 03:17:54;;;;;;;11.93;11.02;;;;;;;-141.48;100.00;69781.59;4972636;29;20400;-66
2022/07/09 03:20:25;;;;;;;11.68;10.52;;;;;;;-141.48;100.00;69781.59;4972046;29;20109;-66
2022/07/09 03:22:55;;;;;;;12.25;11.35;;;;;;;-141.48;100.00;69781.59;4972344;29;20034;-66
2022/07/09 03:25:26;;;;;;;12.77;11.88;;;;;;;-141.48;100.00;69781.59;4972194;29;20030;-66
2022/07/09 03:27:56;;;;;;;14.07;12.82;;;;;;;-141.48;100.00;69781.59;4972446;29;20030;-70
2022/07/09 03:30:27;;;;;;;14.00;13.00;;;;;;;-141.48;100.00;69781.59;4972046;29;20073;-67
2022/07/09 03:32:57;;;;;;;12.80;11.80;;;;;;;-141.48;100.00;69781.59;4972104;29;20031;-67
2022/07/09 03:35:28;;;;;;;11.90;10.73;;;;;;;-141.48;100.00;69781.59;4971791;29;20484;-66
2022/07/09 03:37:58;;;;;;;14.50;13.07;;;;;;;-141.48;100.00;69781.59;4972431;29;20215;-65
2022/07/09 03:40:29;;;;;;;18.50;16.63;;;;;;;-141.48;100.00;69781.59;4971910;29;20445;-67
2022/07/09 03:42:59;;;;;;;16.90;15.18;;;;;;;-141.48;100.00;69781.59;4971764;29;20408;-68
2022/07/09 03:45:30;;;;;;;14.73;13.63;;;;;;;-141.48;100.00;69781.59;4971730;29;20123;-67
2022/07/09 03:48:00;;;;;;;15.30;13.90;;;;;;;-141.48;100.00;69781.59;4971934;29;20046;-66
2022/07/09 03:50:31;;;;;;;17.40;16.13;;;;;;;-141.48;100.00;69781.59;4955590;29;20118;-66
2022/07/09 03:53:01;;;;;;;16.95;15.43;;;;;;;-141.48;100.00;69781.59;4971659;29;20400;-67
2022/07/09 03:55:32;;;;;;;16.15;14.55;;;;;;;-141.48;100.00;69781.59;4954930;29;20031;-67
2022/07/09 03:58:02;;;;;;;15.35;14.25;;;;;;;-141.48;100.00;69781.59;4971728;29;20027;-67
2022/07/09 04:00:33;;;;;;;13.05;12.23;;;;;;;-141.48;100.00;69781.59;4955174;29;20114;-67
2022/07/09 04:03:03;;;;;;;13.57;12.57;;;;;;;-141.48;100.00;69781.59;4971386;29;20034;-66
2022/07/09 04:05:33;;;;;;;15.05;13.75;;;;;;;-141.48;100.00;69781.59;4971093;29;20026;-68
2022/07/09 04:08:04;;;;;;;14.07;12.75;;;;;;;-141.48;100.00;69781.59;4971428;29;20062;-67
2022/07/09 04:10:37;;;;;;;17.35;15.90;;;;;;;-141.48;100.00;69781.59;4971348;29;20027;-68
2022/07/09 04:13:08;;;;;;;16.25;15.00;;;;;;;-141.48;100.00;69781.59;4971355;29;20109;-67
2022/07/09 04:15:38;;;;;;;15.30;13.90;;;;;;;-141.48;100.00;69781.59;4971213;29;20433;-67
2022/07/09 04:18:08;;;;;;;16.65;15.13;;;;;;;-141.48;100.00;69781.59;4955218;29;20027;-67
2022/07/09 04:20:39;;;;;;;13.70;12.73;;;;;;;-141.48;100.00;69781.59;4954820;29;20026;-68
2022/07/09 04:23:09;;;;;;;16.33;14.60;;;;;;;-141.48;100.00;69781.59;4971283;29;20122;-67
2022/07/09 04:25:40;;;;;;;17.77;16.02;;;;;;;-141.48;100.00;69781.59;4970823;29;20035;-68
2022/07/09 04:28:10;;;;;;;16.80;14.77;;;;;;;-141.48;100.00;69781.59;4971492;29;20480;-68
2022/07/09 04:30:41;;;;;;;16.90;15.68;;;;;;;-141.48;100.00;69781.59;4970544;29;20035;-66
2022/07/09 04:33:12;;;;;;;17.42;15.88;;;;;;;-141.48;100.00;69781.59;4966474;24;20551;-62
2022/07/09 04:35:42;;;;;;;19.05;17.45;;;;;;;-141.48;100.00;69781.59;4968082;29;20027;-62
2022/07/09 04:38:13;;;;;;;19.17;17.55;;;;;;;-141.48;100.00;69781.59;4968937;29;20154;-62
2022/07/09 04:40:43;;;;;;;18.90;17.35;;;;;;;-141.48;100.00;69781.59;4968575;29;20479;-61
2022/07/09 04:43:14;;;;;;;19.77;17.02;;;;;;;-141.48;100.00;69781.59;4968484;29;20034;-61
2022/07/09 04:45:44;;;;;;;19.33;17.88;;;;;;;-141.48;100.00;69781.59;4968418;29;20035;-61
2022/07/09 04:48:14;;;;;;;19.35;18.02;;;;;;;-141.48;100.00;69781.59;4968646;29;20039;-61
2022/07/09 04:50:45;;;;;;;20.90;19.08;;;;;;;-141.48;100.00;69781.59;4968797;29;20041;-63
2022/07/09 04:53:15;;;;;;;20.40;18.70;;;;;;;-141.48;100.00;69781.59;4969026;29;20106;-61
2022/07/09 04:55:45;;;;;;;16.50;15.32;;;;;;;-141.48;100.00;69781.59;4968442;29;20167;-61
2022/07/09 04:58:16;;;;;;;21.38;19.05;;;;;;;-141.48;100.00;69781.59;4953014;29;20062;-62
2022/07/09 05:00:46;;;;;;;23.48;20.15;;;;;;;-141.48;100.00;69781.59;4968824;29;20067;-61
2022/07/09 05:03:17;;;;;;;18.05;16.52;;;;;;;-141.48;100.00;69781.59;4968495;29;20031;-61
2022/07/09 05:05:47;;;;;;;20.13;18.30;;;;;;;-141.48;100.00;69781.59;4968187;29;20096;-61
2022/07/09 05:08:18;;;;;;;20.75;18.65;;;;;;;-141.48;100.00;69781.59;4952210;29;20060;-61
2022/07/09 05:10:48;;;;;;;19.05;17.27;;;;;;;-141.48;100.00;69781.59;4968308;29;20065;-62
2022/07/09 05:13:19;;;;;;;19.42;17.73;;;;;;;-141.48;100.00;69781.59;4967935;29;20031;-61
2022/07/09 05:15:49;;;;;;;20.33;18.20;;;;;;;-141.48;100.00;69781.59;4968389;29;20053;-61
2022/07/09 05:18:20;;;;;;;22.40;20.17;;;;;;;-141.48;100.00;69781.59;4968330;29;20459;-61
2022/07/09 05:20:50;;;;;;;21.80;19.95;;;;;;;-141.48;100.00;69781.59;4968260;29;20035;-61
2022/07/09 05:23:20;;;;;;;22.65;20.33;;;;;;;-141.48;100.00;69781.59;4967980;29;20026;-61
2022/07/09 05:25:51;;;;;;;22.05;19.20;;;;;;;-141.48;100.00;69781.59;4968258;29;20061;-62
2022/07/09 05:28:21;;;;;;;22.88;21.05;;;;;;;-141.48;100.00;69781.59;4968092;29;20058;-63
2022/07/09 05:30:52;;;;;;;30.35;22.77;;;;;;;-141.48;100.00;69781.59;4968166;29;20045;-64
2022/07/09 05:33:22;;;;;;;24.10;21.90;;;;;;;-141.48;100.00;69781.59;4967420;29;20039;-62
2022/07/09 05:35:53;;;;;;;24.77;22.75;;;;;;;-141.48;100.00;69781.59;4951514;29;20059;-62
2022/07/09 05:38:23;;;;;;;23.85;22.15;;;;;;;-141.48;100.00;69781.59;4967685;29;20030;-62
2022/07/09 05:40:54;;;;;;;24.13;21.35;;;;;;;-141.48;100.00;69781.59;4968011;29;20354;-61
2022/07/09 05:43:24;;;;;;;29.30;23.15;;;;;;;-141.48;100.00;69781.59;4950810;29;20396;-62
2022/07/09 05:45:54;;;;;;;23.90;21.73;;;;;;;-141.48;100.00;69781.59;4967663;29;20113;-63
2022/07/09 05:48:25;;;;;;;33.83;23.92;;;;;;;-141.48;100.00;69781.59;4967541;29;20442;-63
2022/07/09 05:50:55;;;;;;;24.80;21.23;;;;;;;-141.48;100.00;69781.59;4967437;29;20439;-61
2022/07/09 05:53:26;;;;;;;21.63;19.90;;;;;;;-141.48;100.00;69781.59;4967040;29;20023;-61
2022/07/09 05:55:56;;;;;;;23.20;20.92;;;;;;;-141.48;100.00;69781.59;4967469;29;20437;-62
2022/07/09 05:58:26;;;;;;;23.88;21.63;;;;;;;-141.48;100.00;69781.59;4967551;29;20075;-61
2022/07/09 06:00:57;;;;;;;22.45;20.50;;;;;;;-141.48;100.00;69781.59;4967282;29;20034;-60
2022/07/09 06:03:27;;;;;;;22.83;20.58;;;;;;;-141.48;100.00;69781.59;4966953;29;20073;-59
2022/07/09 06:05:58;;;;;;;21.55;19.83;;;;;;;-141.48;100.00;69781.59;4967125;29;20155;-61
2022/07/09 06:08:28;;;;;;;19.35;17.80;;;;;;;-141.48;100.00;69781.59;4967294;29;20093;-61
2022/07/09 06:11:00;;;;;;;20.55;18.50;;;;;;;-141.48;100.00;69781.59;4951027;29;20184;-63
2022/07/09 06:13:30;;;;;;;20.67;18.60;;;;;;;-141.48;100.00;69781.59;4950697;29;20167;-64
2022/07/09 06:16:00;;;;;;;21.48;19.50;;;;;;;-141.48;100.00;69781.59;4967464;29;20027;-61
2022/07/09 06:18:31;;;;;;;24.42;22.00;;;;;;;-141.48;100.00;69781.59;4967470;29;20373;-61
2022/07/09 06:21:01;;;;;;;20.17;18.27;;;;;;;-141.48;100.00;69781.59;4967242;29;20027;-63
2022/07/09 06:23:32;;;;;;;25.52;18.65;;;;;;;-141.48;100.00;69781.59;4967030;29;20433;-62
2022/07/09 06:26:02;;;;;;;18.15;16.63;;;;;;;-141.48;100.00;69781.59;4967185;29;20110;-60
2022/07/09 06:28:36;;;;;;;17.55;16.23;;;;;;;-141.48;100.00;69781.59;4967267;29;20031;-61
2022/07/09 06:31:07;;;;;;;19.80;17.83;;;;;;;-141.48;100.00;69781.59;4951227;29;20110;-62
2022/07/09 06:33:37;;;;;;;17.63;15.88;;;;;;;-141.48;100.00;69781.59;4966902;29;20178;-62
2022/07/09 06:36:08;;;;;;;20.67;18.88;;;;;;;-141.48;100.00;69781.59;4967071;29;20045;-61
2022/07/09 06:39:44;;;;;;;24.90;22.50;;;;;;;-141.48;100.00;69781.59;4966951;29;20412;-62
2022/07/09 06:41:29;;;;;;;14.68;13.30;;;;;;;-141.48;100.00;69781.59;4966848;29;20038;-62
2022/07/09 06:43:59;;;;;;;19.13;17.38;;;;;;;-141.48;100.00;69781.59;4966755;29;20031;-60
2022/07/09 06:46:29;;;;;;;18.45;15.80;;;;;;;-141.48;100.00;69781.59;4950915;29;20195;-60
2022/07/09 06:49:00;;;;;;;18.38;16.67;;;;;;;-141.48;100.00;69781.59;4967075;29;20027;-62
2022/07/09 06:51:30;;;;;;;17.25;15.85;;;;;;;-141.48;100.00;69781.59;4935902;29;20065;-62
2022/07/09 06:54:00;;;;;;;13.40;12.35;;;;;;;-141.48;100.00;69781.59;4967914;29;20121;-62
2022/07/09 06:56:31;;;;;;;16.83;15.23;;;;;;;-141.48;100.00;69781.59;4970367;29;20034;-62
2022/07/09 06:59:01;;;;;;;17.48;15.70;;;;;;;-141.48;100.00;69781.59;4970211;29;20027;-62
2022/07/09 07:01:32;;;;;;;14.85;13.60;;;;;;;-141.48;100.00;69781.59;4970023;29;20031;-62
2022/07/09 07:04:02;;;;;;;13.80;12.65;;;;;;;-141.48;100.00;69781.59;4969907;29;20414;-60
2022/07/09 07:06:33;;;;;;;12.40;11.23;;;;;;;-141.48;100.00;69781.59;4970042;29;20106;-61
2022/07/09 07:09:03;;;;;;;14.43;12.98;;;;;;;-141.48;100.00;69781.59;4970124;29;20033;-61
2022/07/09 07:11:33;;;;;;;11.43;10.50;;;;;;;-141.48;100.00;69781.59;4969892;29;20079;-62
2022/07/09 07:14:04;;;;;;;15.20;11.82;;;;;;;-141.48;100.00;69781.59;4969457;29;20386;-62
2022/07/09 07:16:34;;;;;;;12.70;11.73;;;;;;;-141.48;100.00;69781.59;4970182;29;20113;-61
2022/07/09 07:19:05;;;;;;;13.48;12.05;;;;;;;-141.48;100.00;69781.59;4969931;29;20167;-62
2022/07/09 07:21:37;;;;;;;12.48;11.50;;;;;;;-141.48;100.00;69781.59;4969527;29;20160;-62
2022/07/09 07:24:07;;;;;;;13.27;12.02;;;;;;;-141.48;100.00;69781.59;4969347;29;20063;-61
2022/07/09 07:26:38;;;;;;;12.75;11.65;;;;;;;-141.48;100.00;69781.59;4969580;29;20523;-61
2022/07/09 07:29:08;;;;;;;11.60;10.82;;;;;;;-141.48;100.00;69781.59;4969933;29;20041;-62
2022/07/09 07:31:38;;;;;;;13.13;12.02;;;;;;;-141.48;100.00;69781.59;4969672;29;20035;-62
2022/07/09 07:34:09;;;;;;;10.52;9.32;;;;;;;-141.48;100.00;69781.59;4969040;29;20467;-62
2022/07/09 07:36:39;;;;;;;12.20;11.00;;;;;;;-141.48;100.00;69781.59;4969468;29;20381;-62
2022/07/09 07:39:10;;;;;;;11.65;10.82;;;;;;;-141.48;100.00;69781.59;4969455;29;20037;-62
2022/07/09 07:41:40;;;;;;;15.40;12.18;;;;;;;-141.48;100.00;69781.59;4953113;29;20031;-62
2022/07/09 07:44:10;;;;;;;12.68;11.60;;;;;;;-141.48;100.00;69781.59;4969092;29;20031;-62
2022/07/09 07:46:41;;;;;;;12.68;11.13;;;;;;;-141.48;100.00;69781.59;4969479;29;20110;-62
2022/07/09 07:49:11;;;;;;;11.50;10.57;;;;;;;-141.48;100.00;69781.59;4969588;29;20038;-62
2022/07/09 07:51:42;;;;;;;11.48;10.18;;;;;;;-141.48;100.00;69781.59;4969218;29;20096;-62
2022/07/09 07:54:13;;;;;;;10.75;9.82;;;;;;;-141.48;100.00;69781.59;4968985;29;20026;-61
2022/07/09 07:56:43;;;;;;;11.93;10.68;;;;;;;-141.48;100.00;69781.59;4969451;29;20098;-62
2022/07/09 07:59:14;;;;;;;13.80;12.32;;;;;;;-141.48;100.00;69781.59;4969594;29;20027;-62
2022/07/09 08:01:44;;;;;;;11.95;11.02;;;;;;;-141.48;100.00;69781.59;4969347;29;20346;-62
2022/07/09 08:04:15;;;;;;;11.98;10.85;;;;;;;-141.48;100.00;69781.59;4968721;29;20035;-62
2022/07/09 08:06:45;;;;;;;12.25;11.30;;;;;;;-141.48;100.00;69781.59;4952124;29;20030;-62
2022/07/09 08:09:16;;;;;;;11.18;10.48;;;;;;;-141.48;100.00;69781.59;4954402;29;20031;-60
2022/07/09 08:11:46;;;;;;;11.15;10.38;;;;;;;-141.48;100.00;69781.59;4954361;29;20045;-62
2022/07/09 08:14:17;;;;;;;19.58;13.02;;;;;;;-141.48;100.00;69781.59;4954158;29;20110;-60
2022/07/09 08:16:47;;;;;;;18.80;12.02;;;;;;;-141.48;100.00;69781.59;4970264;29;20042;-62
2022/07/09 08:19:17;;;;;;;13.15;12.02;;;;;;;-141.48;100.00;69781.59;4969099;29;20027;-61
2022/07/09 08:21:48;;;;;;;12.05;10.32;;;;;;;-141.48;100.00;69781.59;4969193;29;20091;-62
2022/07/09 08:24:18;;;;;;;14.48;13.48;;;;;;;-141.48;100.00;69781.59;4968508;29;20470;-61
2022/07/09 08:26:49;;;;;;;12.88;11.40;;;;;;;-141.48;100.00;69781.59;4969305;29;20183;-60
2022/07/09 08:29:19;;;;;;;14.80;13.30;;;;;;;-141.48;100.00;69781.59;4968988;29;20034;-62
2022/07/09 08:31:50;;;;;;;11.95;11.05;;;;;;;-141.48;100.00;69781.59;4968748;29;20019;-60
2022/07/09 08:34:20;;;;;;;10.88;9.98;;;;;;;-141.48;100.00;69781.59;4968457;29;20037;-61
2022/07/09 08:36:51;;;;;;;11.48;10.10;;;;;;;-141.48;100.00;69781.59;4968628;29;20027;-62
2022/07/09 08:39:21;;;;;;;14.75;13.35;;;;;;;-141.48;100.00;69781.59;4952247;29;20248;-61
2022/07/09 08:41:52;;;;;;;12.07;10.88;;;;;;;-141.48;100.00;69781.59;4968684;29;20035;-62
2022/07/09 08:44:28;;;;;;;14.68;12.07;;;;;;;-141.48;100.00;69781.59;4968175;29;20041;-60
2022/07/09 08:47:00;;;;;;;12.35;10.95;;;;;;;-141.48;100.00;69781.59;4968433;29;20544;-62
2022/07/09 08:49:32;;;;;;;18.88;11.95;;;;;;;-141.48;100.00;69781.59;4968460;29;20026;-62
2022/07/09 08:52:03;;;;;;;14.02;12.68;;;;;;;-141.48;100.00;69781.59;4968463;29;20416;-62
2022/07/09 08:54:37;;;;;;;11.05;8.85;;;;;;;-141.48;100.00;69781.59;4968139;29;20023;-62
2022/07/09 08:57:07;;;;;;;11.23;10.38;;;;;;;-141.48;100.00;69781.59;4968442;29;20054;-63
2022/07/09 08:59:38;;;;;;;12.35;11.20;;;;;;;-141.48;100.00;69781.59;4968509;29;20046;-62
2022/07/09 09:02:09;;;;;;;11.02;10.32;;;;;;;-141.48;100.00;69781.59;4968370;29;20030;-62
2022/07/09 09:04:44;;;;;;;10.25;9.45;;;;;;;-141.48;100.00;69781.59;4967530;29;20099;-62
2022/07/09 09:07:19;;;;;;;12.02;11.18;;;;;;;-141.48;100.00;69781.59;4968358;29;20441;-62
2022/07/09 09:09:49;;;;;;;11.82;10.82;;;;;;;-141.48;100.00;69781.59;4968316;29;20038;-62
2022/07/09 09:12:27;;;;;;;11.25;10.43;;;;;;;-141.48;100.00;69781.59;4951337;29;20464;-62
2022/07/09 09:14:58;;;;;;;16.27;11.73;;;;;;;-141.48;100.00;69781.59;4951413;29;20034;-62
2022/07/09 09:17:28;;;;;;;16.75;14.40;;;;;;;-141.48;100.00;69781.59;4967573;29;20099;-62
2022/07/09 09:19:59;;;;;;;12.60;11.63;;;;;;;-141.48;100.00;69781.59;4967959;29;20039;-62
2022/07/09 09:22:29;;;;;;;11.90;10.98;;;;;;;-141.48;100.00;69781.59;4967927;29;20485;-62
2022/07/09 09:25:02;;;;;;;13.57;12.68;;;;;;;-141.48;100.00;69781.59;4967256;29;20099;-62
2022/07/09 09:27:32;;;;;;;13.25;12.02;;;;;;;-141.48;100.00;69781.59;4967789;29;20510;-61
2022/07/09 09:30:03;;;;;;;14.32;12.95;;;;;;;-141.48;100.00;69781.59;4968635;29;20064;-62
2022/07/09 09:32:34;;;;;;;12.93;11.75;;;;;;;-141.48;100.00;69781.59;4968745;29;20471;-62
2022/07/09 09:35:05;;;;;;;14.20;12.75;;;;;;;-141.48;100.00;69781.59;4937086;29;20049;-61
2022/07/09 09:37:35;;;;;;;12.20;11.18;;;;;;;-141.48;100.00;69781.59;4968567;29;20556;-59
2022/07/09 09:40:10;;;;;;;17.42;12.40;;;;;;;-141.48;100.00;69781.59;4968494;29;20130;-62
2022/07/09 09:42:41;;;;;;;12.57;11.57;;;;;;;-141.48;100.00;69781.59;4968854;29;20023;-61
2022/07/09 09:45:16;;;;;;;12.27;11.38;;;;;;;-141.48;100.00;69781.59;4968301;29;20091;-61
2022/07/09 09:47:51;;;;;;;14.20;12.88;;;;;;;-141.48;100.00;69781.59;4952113;29;20026;-62
2022/07/09 09:50:25;;;;;;;11.27;10.07;;;;;;;-141.48;100.00;69781.59;4937579;29;20038;-62
2022/07/09 09:52:55;;;;;;;11.65;10.70;;;;;;;-141.48;100.00;69781.59;4952847;29;20066;-62
2022/07/09 09:55:25;;;;;;;12.60;11.35;;;;;;;-141.48;100.00;69781.59;4968323;29;20478;-62
2022/07/09 09:57:56;;;;;;;13.52;10.90;;;;;;;-141.48;100.00;69781.59;4969139;29;20126;-60
2022/07/09 10:00:27;;;;;;;11.15;10.05;;;;;;;-141.48;100.00;69781.59;4968919;29;20026;-61
2022/07/09 10:02:59;;;;;;;10.95;10.00;;;;;;;-141.48;100.00;69781.59;4968952;29;20026;-62
2022/07/09 10:05:29;;;;;;;9.10;8.50;;;;;;;-141.48;100.00;69781.59;4968565;29;20476;-62
2022/07/09 10:08:00;;;;;;;8.45;7.80;;;;;;;-141.48;100.00;69781.59;4968846;29;20080;-61
2022/07/09 10:10:30;;;;;;;9.40;8.77;;;;;;;-141.48;100.00;69781.59;4968903;29;20031;-62
2022/07/09 10:13:01;;;;;;;11.85;10.70;;;;;;;-141.48;100.00;69781.59;4968519;29;20027;-62
2022/07/09 10:15:33;;;;;;;10.40;9.68;;;;;;;-141.48;100.00;69781.59;4968264;29;20033;-61
2022/07/09 10:18:11;;;;;;;11.50;10.60;;;;;;;-141.48;100.00;69781.59;4968556;29;20098;-63
2022/07/09 10:20:43;;;;;;;9.88;9.27;;;;;;;-141.48;100.00;69781.59;4968753;29;20396;-62
2022/07/09 10:23:24;;;;;;;10.57;9.52;;;;;;;-141.48;100.00;69781.59;4968507;29;20031;-63
2022/07/09 10:25:57;;;;;;;10.07;8.95;;;;;;;-141.48;100.00;69781.59;4968675;29;20541;-62
2022/07/09 10:28:28;;;;;;;11.07;10.13;;;;;;;-141.48;100.00;69781.59;4969553;29;20066;-61
2022/07/09 10:31:07;;;;;;;9.77;8.90;;;;;;;-141.48;100.00;69781.59;4973189;29;20163;-61
2022/07/09 10:33:48;;;;;;;9.18;8.45;;;;;;;-141.48;100.00;69781.59;4985990;24;20584;-63
2022/07/09 10:36:18;;;;;;;8.20;7.60;;;;;;;-141.48;100.00;69781.59;4973841;29;20031;-62
2022/07/09 10:38:56;;;;;;;9.75;7.97;;;;;;;-141.48;100.00;69781.59;4957405;29;20111;-73
2022/07/09 10:41:27;;;;;;;8.85;8.00;;;;;;;-141.48;100.00;69781.59;4973345;29;20492;-63
2022/07/09 10:43:57;;;;;;;7.50;6.82;;;;;;;-141.48;100.00;69781.59;4956623;29;20464;-65
2022/07/09 10:46:28;;;;;;;10.38;9.65;;;;;;;-141.48;100.00;69781.59;4973520;29;20038;-64
2022/07/09 10:48:59;;;;;;;8.85;8.25;;;;;;;-141.48;100.00;69781.59;4974038;29;20445;-62
2022/07/09 10:51:30;;;;;;;10.77;10.05;;;;;;;-141.48;100.00;69781.59;4974231;29;20037;-69
2022/07/09 10:54:01;;;;;;;8.52;7.78;;;;;;;-141.48;100.00;69781.59;4973756;29;20031;-62
2022/07/09 10:56:35;;;;;;;10.20;9.02;;;;;;;-141.48;100.00;69781.59;4974174;29;20033;-63
2022/07/09 10:59:06;;;;;;;9.10;8.55;;;;;;;-141.48;100.00;69781.59;4974017;29;20480;-63
2022/07/09 11:01:36;;;;;;;8.65;8.00;;;;;;;-141.48;100.00;69781.59;4973789;29;20077;-71
2022/07/09 11:04:07;;;;;;;9.00;6.03;;;;;;;-141.48;100.00;69781.59;4973388;29;20039;-65
2022/07/09 11:06:47;;;;;;;6.47;6.07;;;;;;;-141.48;100.00;69781.59;4974043;29;20422;-64
2022/07/09 11:09:17;;;;;;;6.82;5.05;;;;;;;-141.48;100.00;69781.59;4973594;29;20079;-63
2022/07/09 11:11:49;;;;;;;9.65;5.50;;;;;;;-141.48;100.00;69781.59;4973876;29;20031;-63
2022/07/09 11:14:19;;;;;;;4.72;4.43;;;;;;;-141.48;100.00;69781.59;4973371;29;20035;-66